Airport View

Enter AWOS ICAO identifier for current METAR.

ex. KFNL

KVUO 251153Z AUTO 17009G14KT 10SM OVC110 17/11 A2987 RMK AO2 SLP115 70001 T01670106 10172 20156 56018

25 Sep 2020 12:15

Frequency: 135.125

Phone: 360-696-1280

Other Area AWOS: KPDX - KTTD - KSPB - KHIO

TAF COR KPDX 251159Z 2512/2612 19011KT P6SM VCSH SCT022 OVC070 FM251500 17015G28KT 5SM BR SCT017 OVC025 TEMPO 2515/2518 2SM RA BKN017 FM251800 18014G27KT 5SM BR OVC018 TEMPO 2518/2520 2SM -RA OVC015 FM252000 18014G27KT 6SM BR SCT019 OVC025 TEMPO 2520/2521 4SM -RA BKN019 FM252200 20013G24KT 6SM -RA SCT020 OVC035 FM260600 16006KT P6SM FEW019 SCT060